createdAt,value
2019-03-20T00:04:49.958Z,6.80
2019-03-20T00:09:55.077Z,6.80
2019-03-20T00:14:59.916Z,6.80
2019-03-20T00:20:05.991Z,6.80
2019-03-20T00:25:11.346Z,6.80
2019-03-20T00:30:16.743Z,6.70
2019-03-20T00:35:21.731Z,6.70
2019-03-20T00:40:26.717Z,6.60
2019-03-20T00:45:31.860Z,6.60
2019-03-20T00:50:36.867Z,6.60
2019-03-20T00:55:42.038Z,6.60
2019-03-20T01:00:46.988Z,6.50
2019-03-20T01:05:52.170Z,6.40
2019-03-20T01:10:57.359Z,6.40
2019-03-20T01:16:02.191Z,6.40
2019-03-20T01:21:07.350Z,6.40
2019-03-20T01:26:12.275Z,6.40
2019-03-20T01:31:17.339Z,6.40
2019-03-20T01:36:22.477Z,6.40
2019-03-20T01:41:37.414Z,6.30
2019-03-20T01:46:34.242Z,6.20
2019-03-20T01:51:39.596Z,6.20
2019-03-20T01:56:45.068Z,6.20
2019-03-20T02:01:50.131Z,6.20
2019-03-20T02:06:55.217Z,6.20
2019-03-20T02:12:01.030Z,6.10
2019-03-20T02:17:06.173Z,6.10
2019-03-20T02:22:11.312Z,6.10
2019-03-20T02:27:16.218Z,6.10
2019-03-20T02:32:21.363Z,6.10
2019-03-20T02:37:29.435Z,6.00
2019-03-20T02:42:34.774Z,6.00
2019-03-20T02:47:40.015Z,6.00
2019-03-20T02:52:45.146Z,6.00
2019-03-20T02:57:50.092Z,6.00
2019-03-20T03:02:55.302Z,6.00
2019-03-20T03:08:00.522Z,6.00
2019-03-20T03:13:05.755Z,5.90
2019-03-20T03:18:10.849Z,5.80
2019-03-20T03:23:16.564Z,5.90
2019-03-20T03:28:21.765Z,5.90
2019-03-20T03:33:26.646Z,5.90
2019-03-20T03:38:31.521Z,5.90
2019-03-20T03:43:36.692Z,5.80
2019-03-20T03:48:41.921Z,5.80
2019-03-20T03:53:46.757Z,5.80
2019-03-20T03:58:51.752Z,5.80
2019-03-20T04:03:56.677Z,5.80
2019-03-20T04:09:02.147Z,5.70
2019-03-20T04:14:07.037Z,5.70
2019-03-20T04:19:11.910Z,5.80
2019-03-20T04:24:16.800Z,5.70
2019-03-20T04:29:21.924Z,5.70
2019-03-20T04:34:26.867Z,5.70
2019-03-20T04:39:32.535Z,5.70
2019-03-20T04:44:37.673Z,5.70
2019-03-20T04:49:42.621Z,5.60
2019-03-20T04:54:48.162Z,5.70
2019-03-20T04:59:53.114Z,5.70
2019-03-20T05:04:58.531Z,5.80
2019-03-20T05:10:03.724Z,5.80
2019-03-20T05:15:09.446Z,5.80
2019-03-20T05:20:14.357Z,5.80
2019-03-20T05:25:19.665Z,5.80
2019-03-20T05:30:25.090Z,5.90
2019-03-20T05:35:29.957Z,6.00
2019-03-20T05:40:34.948Z,6.00
2019-03-20T05:45:40.830Z,6.00
2019-03-20T05:50:46.166Z,6.10
2019-03-20T05:55:51.135Z,6.10
2019-03-20T06:00:56.393Z,6.10
2019-03-20T06:06:01.610Z,6.20
2019-03-20T06:11:06.832Z,6.20
2019-03-20T06:16:11.810Z,6.30
2019-03-20T06:21:17.490Z,6.30
2019-03-20T06:26:22.742Z,6.30
2019-03-20T06:31:27.998Z,6.40
2019-03-20T06:36:33.214Z,6.50
2019-03-20T06:41:38.348Z,6.50
2019-03-20T06:46:43.488Z,6.50
2019-03-20T06:51:48.707Z,6.60
2019-03-20T06:56:53.701Z,6.60
2019-03-20T07:02:00.120Z,6.60
2019-03-20T07:07:15.460Z,6.70
2019-03-20T07:12:20.718Z,6.70
2019-03-20T07:17:26.189Z,6.80
2019-03-20T07:22:31.407Z,6.80
2019-03-20T07:27:36.552Z,6.90
2019-03-20T07:32:42.061Z,7.00
2019-03-20T07:37:55.644Z,7.00
2019-03-20T07:43:07.669Z,7.10
2019-03-20T07:48:05.189Z,7.30
2019-03-20T07:53:10.398Z,7.40
2019-03-20T07:58:15.918Z,7.40
2019-03-20T08:03:20.772Z,7.40
2019-03-20T08:08:26.084Z,7.50
2019-03-20T08:13:31.157Z,7.80
2019-03-20T08:18:36.265Z,7.80
2019-03-20T08:23:41.109Z,8.00
2019-03-20T08:28:45.973Z,8.20
2019-03-20T08:33:51.106Z,8.30
2019-03-20T08:38:56.568Z,5.80
2019-03-20T08:44:02.853Z,8.40
2019-03-20T08:49:08.031Z,8.60
2019-03-20T08:54:13.251Z,8.80
2019-03-20T08:59:18.285Z,8.90
2019-03-20T09:04:23.939Z,9.10
2019-03-20T09:09:28.822Z,9.10
2019-03-20T09:14:34.097Z,9.30
2019-03-20T09:19:39.421Z,9.30
2019-03-20T09:24:44.557Z,9.40
2019-03-20T09:29:49.728Z,9.50
2019-03-20T09:34:55.002Z,9.50
2019-03-20T09:40:02.297Z,9.50
2019-03-20T09:45:09.524Z,9.80
2019-03-20T09:50:16.199Z,9.90
2019-03-20T09:55:21.935Z,10.30
2019-03-20T10:00:27.289Z,10.50
2019-03-20T10:05:32.456Z,10.50
2019-03-20T10:10:37.662Z,10.50
2019-03-20T10:15:43.502Z,10.70
2019-03-20T10:20:48.675Z,10.80
2019-03-20T10:25:53.898Z,11.00
2019-03-20T10:30:58.805Z,11.30
2019-03-20T10:36:04.230Z,11.30
2019-03-20T10:41:10.569Z,11.50
2019-03-20T10:46:15.650Z,11.70
2019-03-20T10:51:20.907Z,11.70
2019-03-20T10:56:26.073Z,11.50
2019-03-20T11:01:41.846Z,11.70
2019-03-20T11:06:38.485Z,12.20
2019-03-20T11:11:43.753Z,11.90
2019-03-20T11:16:48.851Z,12.20
2019-03-20T11:21:53.858Z,12.10
2019-03-20T11:26:58.997Z,12.10
2019-03-20T11:32:04.722Z,12.90
2019-03-20T11:37:09.967Z,12.10
2019-03-20T11:42:15.159Z,12.10
2019-03-20T11:47:20.457Z,12.90
2019-03-20T11:53:05.941Z,13.30
2019-03-20T11:58:13.554Z,12.90
2019-03-20T12:03:18.489Z,13.30
2019-03-20T12:08:24.091Z,14.50
2019-03-20T12:13:29.027Z,14.50
2019-03-20T12:18:34.553Z,14.20
2019-03-20T12:23:39.914Z,13.50
2019-03-20T12:28:45.097Z,13.40
2019-03-20T12:33:50.496Z,13.70
2019-03-20T12:38:55.800Z,14.00
2019-03-20T12:44:01.582Z,15.30
2019-03-20T12:49:06.659Z,14.90
2019-03-20T12:54:11.966Z,14.30
2019-03-20T12:59:16.950Z,15.10
2019-03-20T13:04:21.994Z,14.30
2019-03-20T13:09:27.257Z,14.00
2019-03-20T13:14:32.404Z,13.90
2019-03-20T13:19:37.337Z,13.80
2019-03-20T13:24:42.974Z,14.10
2019-03-20T13:29:48.041Z,14.20
2019-03-20T13:34:53.195Z,14.30
2019-03-20T13:39:58.459Z,14.00
2019-03-20T13:45:04.115Z,14.60
2019-03-20T13:50:10.769Z,14.70
2019-03-20T13:55:16.349Z,14.40
2019-03-20T14:00:22.110Z,14.40
2019-03-20T14:05:27.080Z,14.20
2019-03-20T14:10:32.084Z,14.40
2019-03-20T14:15:37.351Z,14.00
2019-03-20T14:20:42.353Z,13.90
2019-03-20T14:25:47.614Z,13.80
2019-03-20T14:30:52.520Z,14.40
2019-03-20T14:35:57.677Z,14.20
2019-03-20T14:41:03.540Z,14.10
2019-03-20T14:46:08.903Z,14.00
2019-03-20T14:51:14.193Z,14.10
2019-03-20T14:56:19.297Z,14.10
2019-03-20T15:01:24.201Z,14.00
2019-03-20T15:06:30.064Z,14.10
2019-03-20T15:11:35.243Z,14.40
2019-03-20T15:16:40.180Z,14.30
2019-03-20T15:21:45.121Z,14.10
2019-03-20T15:26:50.543Z,14.10
2019-03-20T15:31:55.936Z,13.80
2019-03-20T15:37:01.156Z,13.70
2019-03-20T15:42:06.308Z,13.90
2019-03-20T15:47:11.335Z,13.50
2019-03-20T15:52:16.743Z,13.50
2019-03-20T15:57:22.557Z,13.50
2019-03-20T16:02:27.542Z,13.50
2019-03-20T16:07:32.355Z,13.40
2019-03-20T16:12:37.274Z,13.40
2019-03-20T16:17:42.202Z,13.50
2019-03-20T16:22:47.560Z,13.50
2019-03-20T16:27:52.910Z,13.50
2019-03-20T16:32:58.050Z,13.50
2019-03-20T16:38:03.204Z,13.40
2019-03-20T16:43:08.360Z,13.30
2019-03-20T16:48:13.401Z,13.30
2019-03-20T16:53:18.245Z,13.20
2019-03-20T16:58:23.490Z,13.30
2019-03-20T17:03:28.380Z,13.30
2019-03-20T17:08:33.369Z,13.30
2019-03-20T17:13:38.530Z,13.20
2019-03-20T17:18:43.633Z,13.40
2019-03-20T17:23:48.581Z,13.30
2019-03-20T17:28:53.826Z,13.30
2019-03-20T17:33:58.695Z,13.20
2019-03-20T17:39:05.437Z,13.20
2019-03-20T17:44:10.781Z,13.20
2019-03-20T17:49:16.190Z,13.00
2019-03-20T17:54:21.143Z,13.00
2019-03-20T17:59:26.434Z,13.00
2019-03-20T18:04:31.368Z,13.10
2019-03-20T18:09:36.329Z,13.10
2019-03-20T18:14:41.247Z,13.00
2019-03-20T18:19:46.216Z,13.10
2019-03-20T18:24:51.395Z,12.80
2019-03-20T18:29:56.613Z,12.70
2019-03-20T18:35:01.929Z,12.70
2019-03-20T18:40:07.393Z,12.70
2019-03-20T18:45:13.060Z,12.60
2019-03-20T18:50:18.534Z,12.60
2019-03-20T18:55:23.771Z,12.60
2019-03-20T19:00:29.106Z,12.60
2019-03-20T19:05:52.958Z,12.60
2019-03-20T19:10:58.182Z,12.40
2019-03-20T19:16:03.531Z,12.20
2019-03-20T19:21:08.452Z,12.30
2019-03-20T19:26:13.670Z,12.30
2019-03-20T19:31:18.564Z,12.30
2019-03-20T19:36:23.487Z,12.10
2019-03-20T19:41:28.624Z,12.00
2019-03-20T19:46:33.731Z,11.90
2019-03-20T19:51:38.885Z,11.80
2019-03-20T19:56:43.797Z,11.60
2019-03-20T20:01:48.832Z,11.60
2019-03-20T20:06:53.986Z,11.50
2019-03-20T20:11:59.038Z,11.40
2019-03-20T20:17:04.061Z,11.30
2019-03-20T20:22:08.970Z,11.30
2019-03-20T20:27:14.148Z,11.10
2019-03-20T20:32:19.261Z,11.10
2019-03-20T20:37:24.173Z,10.60
2019-03-20T20:42:28.994Z,10.40
2019-03-20T20:47:34.321Z,10.60
2019-03-20T20:52:39.822Z,10.80
2019-03-20T20:57:45.117Z,10.60
2019-03-20T21:02:50.552Z,10.80
2019-03-20T21:07:55.536Z,10.70
2019-03-20T21:13:00.497Z,10.40
2019-03-20T21:18:55.871Z,10.40
2019-03-20T21:24:29.919Z,10.20
2019-03-20T21:29:55.264Z,10.20
2019-03-20T21:36:08.974Z,10.10
2019-03-20T21:41:42.060Z,10.10
2019-03-20T21:47:22.994Z,10.00
2019-03-20T21:52:28.547Z,10.00
2019-03-20T21:57:46.719Z,9.90
2019-03-20T22:02:52.210Z,10.00
2019-03-20T22:07:58.324Z,9.90
2019-03-20T22:13:18.866Z,9.80
2019-03-20T22:19:11.646Z,9.80
2019-03-20T22:24:54.969Z,9.60
2019-03-20T22:30:00.481Z,9.60
2019-03-20T22:35:45.737Z,9.60
2019-03-20T22:41:49.402Z,7.90
2019-03-20T22:47:30.085Z,9.60
2019-03-20T22:53:13.743Z,9.50
2019-03-20T22:58:45.166Z,9.40
2019-03-20T23:03:55.516Z,9.40
2019-03-20T23:09:01.206Z,9.40
2019-03-20T23:14:07.454Z,9.40
2019-03-20T23:19:12.945Z,9.30
2019-03-20T23:24:18.639Z,8.60
2019-03-20T23:29:24.560Z,8.60
2019-03-20T23:34:30.300Z,8.80
2019-03-20T23:39:35.722Z,9.00
2019-03-20T23:44:41.629Z,9.10
2019-03-20T23:49:47.230Z,9.00
2019-03-20T23:54:54.848Z,9.00
